CheckWX is a tool to help pilots better visualize weather data.  It is not intended as a substitute for an official pre-flight weather briefing.

17:05:15 UTC

KDCA TAF
Ronald Reagan Washington National Airport
Washington, Virginia, USA
KDCA 111443Z 1115/1218 30010G15KT P6SM FEW250 FM111900 31008KT P6SM FEW250 FM120700 35005KT P6SM FEW250 FM121500 04004KT P6SM FEW250

Dec-11@
15:00 UTC

Dec-11 @ 15:00 UTC

Dec-11@
19:00 UTC

Dec-11 @ 19:00 UTC

KDCA 111443Z 1115/1218 30010G15KT P6SM FEW250
Wind
  • 300° at 10 KTS
  • {Gusting to 15 KTS
Cloud Levels
  • Few at 25,000' AGL

Dec-11@
19:00 UTC

Dec-11 @ 19:00 UTC

Dec-12@
07:00 UTC

Dec-12 @ 07:00 UTC

FM111900 31008KT P6SM FEW250

From

From Standard forecast or significant change

Wind
  • 310° at 8 KTS
Cloud Levels
  • Few at 25,000' AGL

Dec-12@
07:00 UTC

Dec-12 @ 07:00 UTC

Dec-12@
15:00 UTC

Dec-12 @ 15:00 UTC

FM120700 35005KT P6SM FEW250

From

From Standard forecast or significant change

Wind
  • 350° at 5 KTS
Cloud Levels
  • Few at 25,000' AGL

Dec-12@
15:00 UTC

Dec-12 @ 15:00 UTC

Dec-12@
18:00 UTC

Dec-12 @ 18:00 UTC

FM121500 04004KT P6SM FEW250

From

From Standard forecast or significant change

Wind
  • 040° at 4 KTS
Cloud Levels
  • Few at 25,000' AGL